Time;durP1;ratioP1;P1;durP2;ratioP2;P2;SDS_P1;SDS_P2;PMS_P1;PMS_P2;Temp;Humidity;BMP_temperature;BMP_pressure;BME280_temperature;BME280_humidity;BME280_pressure;Samples;Min_cycle;Max_cycle;Signal;HPM_P1;HPM_P2
2022/12/20 00:02:01;;;;;;;2.30;1.42;;;;;;;9.05;81.76;101286.00;5031317;28;20026;-80
2022/12/20 00:04:26;;;;;;;2.42;1.50;;;;;;;9.05;81.65;101292.94;5035575;28;20029;-80
2022/12/20 00:06:51;;;;;;;2.88;1.60;;;;;;;9.04;81.60;101304.19;5031510;28;20030;-80
2022/12/20 00:09:16;;;;;;;2.45;1.40;;;;;;;9.05;81.77;101311.94;5035582;28;20112;-80
2022/12/20 00:11:42;;;;;;;2.90;1.60;;;;;;;9.06;81.60;101299.81;5031587;28;20030;-80
2022/12/20 00:14:08;;;;;;;2.15;1.60;;;;;;;9.05;81.55;101309.34;5032905;28;20029;-80
2022/12/20 00:16:34;;;;;;;2.95;1.60;;;;;;;9.06;81.66;101308.47;5034459;28;20033;-80
2022/12/20 00:19:02;;;;;;;4.25;1.63;;;;;;;9.07;81.47;101306.72;5015590;28;20036;-80
2022/12/20 00:21:28;;;;;;;3.13;1.70;;;;;;;9.07;81.38;101311.91;5025956;28;20028;-80
2022/12/20 00:23:54;;;;;;;2.47;1.58;;;;;;;9.11;81.47;101305.81;5020768;28;20438;-80
2022/12/20 00:26:23;;;;;;;2.47;1.58;;;;;;;9.13;81.23;101298.03;5016585;28;20030;-80
2022/12/20 00:28:48;;;;;;;2.08;1.42;;;;;;;9.17;81.07;101294.50;5034783;28;20503;-81
2022/12/20 00:31:17;;;;;;;3.38;1.50;;;;;;;9.21;80.86;101284.09;5019425;28;20057;-80
2022/12/20 00:33:45;;;;;;;3.20;1.60;;;;;;;9.23;80.98;101287.50;5022170;28;20029;-80
2022/12/20 00:36:11;;;;;;;2.67;1.60;;;;;;;9.22;80.76;101282.31;5034897;28;20096;-80
2022/12/20 00:38:36;;;;;;;2.80;1.60;;;;;;;9.25;80.70;101296.13;5050297;28;20484;-80
2022/12/20 00:41:06;;;;;;;6.07;1.77;;;;;;;9.27;80.56;101281.38;5035160;28;20029;-80
2022/12/20 00:43:32;;;;;;;3.67;1.88;;;;;;;9.29;80.38;101270.13;5034038;28;20041;-80
2022/12/20 00:45:58;;;;;;;2.65;1.52;;;;;;;9.29;80.23;101265.81;5034745;28;20048;-80
2022/12/20 00:48:25;;;;;;;2.70;1.63;;;;;;;9.32;80.31;101257.09;5033180;28;20033;-80
2022/12/20 00:50:51;;;;;;;2.53;1.52;;;;;;;9.34;80.24;101260.53;5034799;28;20111;-80
2022/12/20 00:53:16;;;;;;;2.92;1.50;;;;;;;9.34;80.21;101261.38;5028578;28;20077;-80
2022/12/20 00:55:44;;;;;;;2.78;1.70;;;;;;;9.36;80.01;101256.19;5016135;28;20029;-80
2022/12/20 00:58:09;;;;;;;3.78;1.73;;;;;;;9.37;80.09;101248.38;5025040;28;20029;-80
2022/12/20 01:00:35;;;;;;;2.85;1.55;;;;;;;9.38;79.76;101252.69;5032793;28;20090;-81
2022/12/20 01:03:01;;;;;;;2.75;1.48;;;;;;;9.40;79.53;101258.72;5020976;28;20033;-80
2022/12/20 01:05:26;;;;;;;3.47;1.73;;;;;;;9.43;79.79;101267.34;5020734;28;20037;-80
2022/12/20 01:07:51;;;;;;;2.38;1.40;;;;;;;9.44;79.67;101258.69;5034462;28;20364;-80
2022/12/20 01:10:17;;;;;;;2.70;1.50;;;;;;;9.45;79.72;101263.84;5033658;28;20037;-81
2022/12/20 01:12:42;;;;;;;3.88;1.50;;;;;;;9.51;79.53;101261.16;5034424;28;20029;-80
2022/12/20 01:15:08;;;;;;;3.28;1.60;;;;;;;9.56;79.55;101279.28;5032999;28;20433;-81
2022/12/20 01:17:33;;;;;;;2.33;1.50;;;;;;;9.61;80.53;101281.78;5034295;28;20108;-80
2022/12/20 01:19:59;;;;;;;2.58;1.75;;;;;;;9.61;80.76;101272.28;5034273;28;20060;-81
2022/12/20 01:22:24;;;;;;;3.58;1.60;;;;;;;9.59;81.21;101288.75;5015726;28;20025;-80
2022/12/20 01:24:49;;;;;;;3.00;1.70;;;;;;;9.55;81.86;101288.81;5046988;28;20052;-80
2022/12/20 01:27:15;;;;;;;4.03;1.70;;;;;;;9.52;81.85;101288.84;5054076;28;20029;-80
2022/12/20 01:29:40;;;;;;;2.90;1.65;;;;;;;9.50;81.89;101288.00;5039584;28;20100;-80
2022/12/20 01:32:05;;;;;;;2.75;1.67;;;;;;;9.48;82.13;101276.78;5034011;28;20064;-80
2022/12/20 01:34:30;;;;;;;2.95;1.65;;;;;;;9.47;82.45;101274.22;5023335;28;20500;-80
2022/12/20 01:36:57;;;;;;;2.53;1.50;;;;;;;9.48;83.15;101269.00;5028252;28;20041;-81
2022/12/20 01:39:22;;;;;;;2.85;1.48;;;;;;;9.48;83.56;101278.53;5032158;28;20385;-80
2022/12/20 01:41:48;;;;;;;3.00;1.90;;;;;;;9.44;84.70;101277.69;5030129;28;20037;-80
2022/12/20 01:44:16;;;;;;;4.68;1.70;;;;;;;9.42;84.94;101276.84;5032167;28;20025;-80
2022/12/20 01:46:43;;;;;;;2.50;1.48;;;;;;;9.39;85.27;101288.16;5033702;28;20043;-81
2022/12/20 01:49:16;;;;;;;2.83;1.60;;;;;;;9.37;85.81;101279.53;5027794;28;20095;-80
2022/12/20 01:52:03;;;;;;;4.25;1.77;;;;;;;9.34;86.43;101270.94;5025410;28;20026;-80
2022/12/20 01:54:33;;;;;;;3.30;1.65;;;;;;;9.31;87.06;101270.97;5029233;28;20033;-81
2022/12/20 01:57:04;;;;;;;3.90;2.00;;;;;;;9.26;87.85;101277.06;5024912;28;20037;-80
2022/12/20 01:59:35;;;;;;;2.50;1.60;;;;;;;9.20;88.09;101261.59;5017320;28;20029;-81
2022/12/20 02:02:03;;;;;;;3.88;1.67;;;;;;;9.16;89.00;101259.03;5030822;28;20616;-81
2022/12/20 02:04:29;;;;;;;2.40;1.70;;;;;;;9.13;88.84;101254.75;5032490;28;20037;-81
2022/12/20 02:06:55;;;;;;;3.38;1.77;;;;;;;9.09;89.53;101247.88;5033434;28;20021;-80
2022/12/20 02:09:20;;;;;;;4.13;1.90;;;;;;;9.05;89.54;101238.44;5033355;28;20342;-81
2022/12/20 02:12:10;;;;;;;2.60;1.73;;;;;;;9.04;89.71;101232.38;5032573;28;20025;-80
2022/12/20 02:15:07;;;;;;;4.45;1.63;;;;;;;9.01;90.01;101224.63;5032503;28;20504;-80
2022/12/20 02:18:04;;;;;;;3.72;2.03;;;;;;;8.99;89.69;101226.38;5020214;28;20097;-81
2022/12/20 02:20:47;;;;;;;2.97;1.90;;;;;;;8.98;90.60;101229.84;5033255;28;20026;-80
2022/12/20 02:23:57;;;;;;;3.38;1.98;;;;;;;8.98;90.64;101229.00;5033017;28;20389;-81
2022/12/20 02:26:47;;;;;;;2.78;1.63;;;;;;;8.94;90.45;101213.47;5009792;28;20449;-81
2022/12/20 02:29:39;;;;;;;3.60;1.90;;;;;;;8.93;90.82;101208.31;5031237;28;20563;-81
2022/12/20 02:32:21;;;;;;;3.20;1.90;;;;;;;8.90;91.15;101190.19;5033029;28;20488;-81
2022/12/20 02:34:49;;;;;;;3.28;1.70;;;;;;;8.88;91.68;101187.59;5032994;28;20060;-81
2022/12/20 02:37:14;;;;;;;2.30;1.50;;;;;;;8.85;91.42;101181.59;5033010;28;20030;-81
2022/12/20 02:39:43;;;;;;;3.83;1.92;;;;;;;8.84;91.36;101191.13;5032850;28;20048;-81
2022/12/20 02:42:11;;;;;;;4.45;1.85;;;;;;;8.84;91.43;101198.91;5032886;28;20021;-81
2022/12/20 02:47:45;;;;;;;3.30;1.65;;;;;;;8.80;91.21;101176.47;5032437;28;20040;-81
2022/12/20 02:50:11;;;;;;;3.67;1.90;;;;;;;8.77;90.81;101168.72;5032807;28;20448;-80
2022/12/20 02:52:37;;;;;;;3.58;1.88;;;;;;;8.80;90.79;101171.28;5016825;28;20037;-80
2022/12/20 02:55:04;;;;;;;3.95;1.70;;;;;;;8.81;90.68;101173.00;5012924;28;20054;-80
2022/12/20 02:57:41;;;;;;;2.35;1.70;;;;;;;8.84;90.26;101172.09;5027525;28;20072;-81
2022/12/20 03:00:19;;;;;;;2.67;1.77;;;;;;;8.84;90.45;101165.19;5014279;28;20079;-80
2022/12/20 03:05:32;;;;;;;3.05;1.80;;;;;;;8.87;89.83;101166.88;5023315;28;20040;-81
2022/12/20 03:07:57;;;;;;;3.60;1.70;;;;;;;8.89;89.43;101165.94;5026793;28;20059;-80
2022/12/20 03:10:23;;;;;;;2.65;1.80;;;;;;;8.91;89.37;101160.75;5002675;28;20446;-80
2022/12/20 03:12:48;;;;;;;3.80;1.85;;;;;;;8.93;89.26;101166.78;5022952;28;20041;-80
2022/12/20 03:15:13;;;;;;;3.22;1.90;;;;;;;8.95;88.99;101168.47;5012893;28;20021;-80
2022/12/20 03:17:38;;;;;;;3.47;1.80;;;;;;;8.96;88.84;101170.19;5014819;28;20029;-80
2022/12/20 03:20:06;;;;;;;3.03;1.90;;;;;;;9.01;88.65;101174.47;5025194;28;20075;-81
2022/12/20 03:22:32;;;;;;;3.42;1.85;;;;;;;9.06;88.29;101175.25;5020498;28;20057;-81
2022/12/20 03:24:58;;;;;;;3.35;1.70;;;;;;;9.09;88.19;101164.81;5029630;28;20104;-81
2022/12/20 03:27:26;;;;;;;2.50;1.65;;;;;;;9.13;88.06;101169.09;5014297;28;20036;-80
2022/12/20 03:29:52;;;;;;;3.97;1.83;;;;;;;9.15;88.26;101164.75;5015144;28;20048;-80
2022/12/20 03:32:17;;;;;;;2.78;1.63;;;;;;;9.20;87.70;101167.25;5014176;28;20026;-80
2022/12/20 03:34:43;;;;;;;3.78;1.77;;;;;;;9.24;87.56;101164.59;5031486;28;20029;-81
2022/12/20 03:37:08;;;;;;;2.38;1.60;;;;;;;9.28;87.56;101155.03;5029252;28;20366;-81
2022/12/20 03:39:34;;;;;;;3.38;1.80;;;;;;;9.31;87.19;101160.16;5031507;28;20067;-80
2022/12/20 03:41:59;;;;;;;2.50;1.58;;;;;;;9.35;87.10;101150.59;5032783;28;20071;-80
2022/12/20 03:44:24;;;;;;;4.15;1.80;;;;;;;9.38;87.29;101155.75;5023766;28;20106;-80
2022/12/20 03:46:49;;;;;;;3.20;1.67;;;;;;;9.37;86.86;101154.03;5016251;28;20033;-80
2022/12/20 03:49:15;;;;;;;2.67;1.70;;;;;;;9.44;86.82;101165.19;5023836;28;20377;-80
2022/12/20 03:51:40;;;;;;;2.42;1.70;;;;;;;9.47;86.71;101163.38;5016055;28;20029;-81
2022/12/20 03:54:06;;;;;;;3.83;1.80;;;;;;;9.51;86.42;101180.66;5022517;28;20446;-80
2022/12/20 03:56:31;;;;;;;4.93;1.77;;;;;;;9.54;86.12;101188.41;5025228;28;20033;-80
2022/12/20 03:58:56;;;;;;;2.63;1.60;;;;;;;9.57;86.26;101185.72;5017156;28;20363;-80
2022/12/20 04:01:24;;;;;;;4.47;1.80;;;;;;;9.59;86.08;101184.84;5035169;28;20020;-80
2022/12/20 04:03:50;;;;;;;4.63;1.83;;;;;;;9.62;85.79;101183.06;5034637;28;20037;-80
2022/12/20 04:06:15;;;;;;;2.85;1.65;;;;;;;9.63;86.07;101165.72;5017672;28;20080;-81
2022/12/20 04:08:41;;;;;;;3.33;1.80;;;;;;;9.64;85.89;101165.72;5020521;28;20017;-80
2022/12/20 04:11:15;;;;;;;3.55;1.77;;;;;;;9.68;85.53;101163.94;5020342;28;20238;-81
2022/12/20 04:13:42;;;;;;;2.47;1.60;;;;;;;9.70;85.61;101162.16;5021025;28;20491;-80
2022/12/20 04:16:07;;;;;;;3.10;1.73;;;;;;;9.70;85.84;101167.38;5034005;28;20095;-80
2022/12/20 04:18:32;;;;;;;2.97;1.60;;;;;;;9.73;85.54;101167.31;5031490;28;20021;-80
2022/12/20 04:21:01;;;;;;;3.40;1.75;;;;;;;9.74;85.43;101158.59;5031426;28;20021;-80
2022/12/20 04:23:26;;;;;;;3.58;1.60;;;;;;;9.75;85.40;101154.28;5033233;28;20041;-80
2022/12/20 04:25:52;;;;;;;2.30;1.60;;;;;;;9.74;85.48;101157.75;5024517;28;20404;-81
2022/12/20 04:28:17;;;;;;;3.10;1.88;;;;;;;9.74;85.31;101153.41;5024817;28;20033;-80
2022/12/20 04:30:42;;;;;;;5.45;1.65;;;;;;;9.76;85.13;101145.59;5027097;28;20143;-80
2022/12/20 04:33:08;;;;;;;3.53;1.70;;;;;;;9.77;85.20;101150.75;5035000;28;20018;-80
2022/12/20 04:35:33;;;;;;;2.72;1.63;;;;;;;9.77;85.17;101148.16;5027615;28;20025;-80
2022/12/20 04:37:58;;;;;;;3.53;1.70;;;;;;;9.76;85.23;101148.22;5034208;28;20035;-80
2022/12/20 04:40:24;;;;;;;4.40;1.67;;;;;;;9.78;84.93;101149.88;5031603;28;20029;-80
2022/12/20 04:42:49;;;;;;;3.25;1.52;;;;;;;9.80;85.03;101152.47;5017500;28;20052;-80
2022/12/20 04:45:14;;;;;;;2.88;1.55;;;;;;;9.83;84.96;101137.69;5026899;28;20057;-81
2022/12/20 04:47:39;;;;;;;3.10;1.70;;;;;;;9.85;84.82;101138.50;5032992;28;20105;-81
2022/12/20 04:50:06;;;;;;;2.60;1.60;;;;;;;9.90;84.57;101142.78;5030687;28;20030;-81
2022/12/20 04:55:15;;;;;;;2.88;1.40;;;;;;;9.92;84.61;101143.56;5030672;28;20083;-81
2022/12/20 04:57:40;;;;;;;3.08;1.50;;;;;;;9.93;84.39;101147.88;5033306;28;20429;-80
2022/12/20 05:00:06;;;;;;;2.58;1.60;;;;;;;9.94;84.57;101139.22;5034241;28;20074;-81
2022/12/20 05:02:32;;;;;;;3.47;1.63;;;;;;;9.96;84.25;101137.44;5033023;28;20028;-81
2022/12/20 05:04:57;;;;;;;2.60;1.38;;;;;;;9.96;84.17;101137.44;5028487;28;20029;-80
2022/12/20 05:07:22;;;;;;;3.15;1.70;;;;;;;9.95;84.50;101134.00;5026971;28;20025;-81
2022/12/20 05:09:47;;;;;;;2.83;1.38;;;;;;;9.96;84.46;101132.25;5016733;28;20044;-81
2022/12/20 05:12:13;;;;;;;2.63;1.55;;;;;;;9.94;84.46;101137.47;5028649;28;20409;-80
2022/12/20 05:14:38;;;;;;;3.08;1.60;;;;;;;9.94;84.65;101134.00;5029163;28;20029;-81
2022/12/20 05:17:03;;;;;;;2.90;1.58;;;;;;;9.95;84.70;101126.22;5024038;28;20391;-81
2022/12/20 05:19:28;;;;;;;3.38;1.40;;;;;;;9.97;84.79;101118.38;5032486;28;20083;-81
2022/12/20 05:27:21;;;;;;;2.92;1.50;;;;;;;9.95;85.20;101105.41;5024011;28;20266;-80
2022/12/20 05:29:47;;;;;;;3.42;1.50;;;;;;;9.96;84.97;101106.25;5032045;28;20132;-81
2022/12/20 05:32:12;;;;;;;3.08;1.60;;;;;;;9.97;85.02;101107.97;5028046;28;20040;-80
2022/12/20 05:34:37;;;;;;;2.90;1.70;;;;;;;9.97;85.32;101107.97;5032083;28;20067;-80
2022/12/20 05:37:02;;;;;;;3.08;1.98;;;;;;;9.95;85.26;101100.22;5031817;28;20061;-80
2022/12/20 05:39:28;;;;;;;3.15;1.65;;;;;;;9.97;85.04;101102.78;5033004;28;20408;-80
2022/12/20 05:41:53;;;;;;;4.00;1.70;;;;;;;9.97;85.40;101108.84;5031159;28;20033;-81
2022/12/20 05:44:21;;;;;;;3.65;1.55;;;;;;;9.96;85.23;101095.84;5031555;28;20037;-80
2022/12/20 05:46:46;;;;;;;2.33;1.50;;;;;;;9.94;85.47;101095.03;5013531;28;20022;-81
2022/12/20 05:49:11;;;;;;;2.53;1.50;;;;;;;9.94;85.75;101102.81;5028589;28;20112;-80
2022/12/20 05:51:36;;;;;;;3.95;1.60;;;;;;;9.93;85.67;101093.31;5028258;28;20538;-80
2022/12/20 05:54:02;;;;;;;2.28;1.50;;;;;;;9.92;85.95;101099.41;5027905;28;20029;-81
2022/12/20 05:56:27;;;;;;;3.05;1.40;;;;;;;9.88;85.98;101098.59;5030086;28;20041;-80
2022/12/20 05:58:52;;;;;;;2.15;1.40;;;;;;;9.86;85.96;101100.38;5024680;28;20033;-81
2022/12/20 06:01:18;;;;;;;3.40;1.30;;;;;;;9.85;86.04;101090.84;5023300;28;20388;-80
2022/12/20 06:03:44;;;;;;;3.13;1.40;;;;;;;9.82;85.91;101081.38;5028445;28;20037;-80
2022/12/20 06:06:09;;;;;;;2.83;1.35;;;;;;;9.81;86.04;101077.06;5030704;28;20052;-80
2022/12/20 06:08:35;;;;;;;2.53;1.40;;;;;;;9.79;85.85;101073.66;5029490;28;20465;-80
2022/12/20 06:11:02;;;;;;;3.30;1.58;;;;;;;9.78;85.99;101065.91;5030580;28;20067;-80
2022/12/20 06:13:27;;;;;;;1.92;1.33;;;;;;;9.76;86.05;101072.84;5013749;28;20030;-80
2022/12/20 06:15:53;;;;;;;2.50;1.30;;;;;;;9.75;85.58;101065.94;5031856;28;20539;-80
2022/12/20 06:18:18;;;;;;;2.90;1.60;;;;;;;9.71;85.98;101054.75;5024504;28;20026;-81
2022/12/20 06:20:49;;;;;;;1.90;1.17;;;;;;;9.70;85.99;101053.06;5026094;28;20025;-81
2022/12/20 06:23:14;;;;;;;1.88;1.38;;;;;;;9.67;85.76;101043.56;5024445;28;20109;-81
2022/12/20 06:25:39;;;;;;;2.22;1.50;;;;;;;9.65;86.15;101036.69;5028655;28;20108;-80
2022/12/20 06:28:06;;;;;;;3.20;1.60;;;;;;;9.63;86.04;101041.91;5031889;28;20018;-81
2022/12/20 06:30:32;;;;;;;2.60;1.42;;;;;;;9.61;86.13;101041.09;5025816;28;20119;-80
2022/12/20 06:32:58;;;;;;;3.65;1.40;;;;;;;9.60;85.73;101041.09;5026960;28;20033;-81
2022/12/20 06:35:23;;;;;;;3.35;1.67;;;;;;;9.57;85.53;101053.25;5015889;28;20017;-81
2022/12/20 06:37:49;;;;;;;2.63;1.50;;;;;;;9.55;85.35;101047.25;5030463;28;20037;-81
2022/12/20 06:40:14;;;;;;;2.30;1.60;;;;;;;9.54;85.10;101049.88;5032433;28;20075;-81
2022/12/20 06:42:39;;;;;;;3.90;1.90;;;;;;;9.52;85.14;101056.81;5024979;28;20033;-80
2022/12/20 06:45:05;;;;;;;3.00;1.40;;;;;;;9.51;85.15;101058.56;5013442;28;20104;-81
2022/12/20 06:47:31;;;;;;;3.03;1.70;;;;;;;9.50;84.96;101056.00;5026092;28;20108;-81
2022/12/20 06:49:56;;;;;;;2.97;1.60;;;;;;;9.51;84.90;101049.91;5013491;28;20053;-81
2022/12/20 06:52:22;;;;;;;3.50;1.48;;;;;;;9.51;84.82;101047.31;5012849;28;20458;-81
2022/12/20 06:54:47;;;;;;;3.47;1.40;;;;;;;9.50;84.81;101046.47;5012983;28;20470;-81
2022/12/20 06:57:13;;;;;;;2.80;1.50;;;;;;;9.52;84.49;101043.84;5013742;28;20100;-80
2022/12/20 06:59:38;;;;;;;2.25;1.50;;;;;;;9.48;84.68;101037.84;5027620;28;20467;-81
2022/12/20 07:02:04;;;;;;;3.22;1.35;;;;;;;9.49;84.43;101044.75;5021912;28;20400;-81
2022/12/20 07:04:29;;;;;;;3.38;1.50;;;;;;;9.49;84.35;101043.88;5017145;28;20057;-81
2022/12/20 07:06:55;;;;;;;4.00;1.40;;;;;;;9.51;83.94;101049.91;5033021;28;20473;-80
2022/12/20 07:09:21;;;;;;;2.20;1.40;;;;;;;9.52;83.80;101034.31;5018129;28;20402;-81
2022/12/20 07:11:46;;;;;;;3.25;1.40;;;;;;;9.52;83.73;101041.25;5036747;28;20040;-81
2022/12/20 07:14:11;;;;;;;2.85;1.40;;;;;;;9.54;83.54;101047.28;5036696;28;20022;-81
2022/12/20 07:16:37;;;;;;;3.58;1.40;;;;;;;9.55;83.25;101043.78;5035532;28;20038;-81
2022/12/20 07:19:02;;;;;;;4.68;1.30;;;;;;;9.57;83.26;101042.88;5026809;28;20040;-81
2022/12/20 07:21:27;;;;;;;3.90;1.30;;;;;;;9.57;83.15;101035.06;5036489;28;20116;-80
2022/12/20 07:23:54;;;;;;;2.55;1.40;;;;;;;9.59;82.73;101057.56;5036436;28;20060;-81
2022/12/20 07:26:19;;;;;;;3.15;1.55;;;;;;;9.60;82.77;101046.28;5036442;28;20457;-81
2022/12/20 07:28:44;;;;;;;2.97;1.38;;;;;;;9.63;82.57;101056.63;5035510;28;20029;-80
2022/12/20 07:31:10;;;;;;;3.53;1.25;;;;;;;9.65;82.68;101049.66;5035471;28;20049;-81
2022/12/20 07:33:36;;;;;;;3.95;1.42;;;;;;;9.68;82.34;101047.03;5035578;28;20465;-81
2022/12/20 07:36:11;;;;;;;2.67;1.60;;;;;;;9.68;82.26;101042.66;5034478;28;20550;-80
2022/12/20 07:38:36;;;;;;;2.90;1.42;;;;;;;9.70;82.02;101047.84;5031829;28;20136;-80
2022/12/20 07:41:10;;;;;;;2.92;1.38;;;;;;;9.70;81.93;101053.88;5031486;28;20156;-81
2022/12/20 07:43:36;;;;;;;3.17;1.30;;;;;;;9.71;82.09;101052.16;5029725;28;20041;-80
2022/12/20 07:46:03;;;;;;;2.92;1.50;;;;;;;9.74;81.39;101053.84;5027536;28;20033;-80
2022/12/20 07:48:28;;;;;;;3.17;1.13;;;;;;;9.76;81.54;101054.66;5034058;28;20040;-81
2022/12/20 07:51:05;;;;;;;2.40;1.40;;;;;;;9.78;81.55;101058.94;5033632;28;20026;-80
2022/12/20 07:53:33;;;;;;;2.03;1.20;;;;;;;9.79;81.58;101046.81;5017687;28;20099;-80
2022/12/20 07:56:01;;;;;;;2.30;1.40;;;;;;;9.80;81.08;101057.19;5035605;28;20076;-81
2022/12/20 07:58:28;;;;;;;2.90;1.20;;;;;;;9.82;81.25;101060.59;5035766;28;20033;-81
2022/12/20 08:00:53;;;;;;;2.00;1.13;;;;;;;9.84;81.13;101070.97;5034969;28;20096;-81
2022/12/20 08:03:31;;;;;;;2.88;1.30;;;;;;;9.85;81.09;101060.56;5027665;28;20060;-81
2022/12/20 08:06:02;;;;;;;2.45;1.60;;;;;;;9.88;80.86;101075.22;5029447;28;20033;-81
2022/12/20 08:08:30;;;;;;;2.42;1.38;;;;;;;9.88;80.77;101072.63;5032058;28;20538;-81
2022/12/20 08:10:56;;;;;;;3.95;1.33;;;;;;;9.91;80.61;101079.50;5019268;28;20040;-81
2022/12/20 08:13:21;;;;;;;3.60;1.40;;;;;;;9.92;80.80;101079.47;5024446;28;20497;-81
2022/12/20 08:15:46;;;;;;;3.03;1.55;;;;;;;9.91;80.81;101069.97;5022393;28;21773;-81
2022/12/20 08:18:12;;;;;;;3.72;1.60;;;;;;;9.93;81.40;101080.31;5030508;28;20021;-81
2022/12/20 08:20:37;;;;;;;3.30;1.30;;;;;;;9.94;81.54;101076.84;5023887;28;20092;-81
2022/12/20 08:23:03;;;;;;;1.50;1.20;;;;;;;9.92;82.16;101073.41;5028780;28;20049;-81
2022/12/20 08:25:28;;;;;;;2.40;1.30;;;;;;;9.89;82.31;101073.50;5018935;28;20424;-81
2022/12/20 08:27:54;;;;;;;2.97;1.33;;;;;;;9.86;83.44;101075.25;5028546;28;20111;-81
2022/12/20 08:30:19;;;;;;;2.13;1.20;;;;;;;9.84;82.53;101079.63;5024151;28;20058;-80
2022/12/20 08:32:44;;;;;;;2.60;1.25;;;;;;;9.82;82.77;101068.41;5024172;28;20061;-81
2022/12/20 08:35:09;;;;;;;1.88;1.20;;;;;;;9.81;83.27;101074.47;5024098;28;20385;-81
2022/12/20 08:37:35;;;;;;;1.85;1.10;;;;;;;9.81;83.05;101078.84;5023708;28;20033;-81
2022/12/20 08:40:00;;;;;;;3.17;1.23;;;;;;;9.82;83.67;101083.16;5026121;28;20018;-80
2022/12/20 08:42:29;;;;;;;3.17;1.40;;;;;;;9.79;84.17;101078.84;5032487;28;20032;-81
2022/12/20 08:44:54;;;;;;;2.30;1.13;;;;;;;9.76;84.19;101073.69;5027431;28;20022;-81
2022/12/20 08:47:19;;;;;;;2.90;1.50;;;;;;;9.77;84.37;101079.78;5031577;28;20029;-81
2022/12/20 08:49:45;;;;;;;3.17;1.40;;;;;;;9.75;84.81;101076.34;5032779;28;20025;-81
2022/12/20 08:52:10;;;;;;;1.58;1.20;;;;;;;9.74;85.25;101066.81;5035686;28;20414;-81
2022/12/20 08:54:35;;;;;;;2.63;1.40;;;;;;;9.69;85.61;101061.72;5035438;28;20025;-81
2022/12/20 08:57:00;;;;;;;1.55;1.08;;;;;;;9.68;85.98;101062.63;5020666;28;20027;-81
2022/12/20 08:59:26;;;;;;;2.10;1.13;;;;;;;9.63;86.01;101062.69;5030020;28;20358;-81
2022/12/20 09:01:53;;;;;;;2.40;1.23;;;;;;;9.61;86.33;101066.19;5030397;28;20500;-82
2022/12/20 09:04:18;;;;;;;3.83;1.40;;;;;;;9.58;86.44;101064.50;5030229;28;20026;-81
2022/12/20 09:06:44;;;;;;;1.95;1.20;;;;;;;9.55;86.59;101056.78;5029418;28;20389;-81
2022/12/20 09:09:09;;;;;;;2.65;1.27;;;;;;;9.55;86.36;101070.63;5029710;28;20068;-81
2022/12/20 09:11:34;;;;;;;1.98;1.20;;;;;;;9.51;87.18;101057.72;5029716;28;20030;-81
2022/12/20 09:14:00;;;;;;;2.03;1.20;;;;;;;9.50;87.24;101061.19;5024583;28;20088;-81
2022/12/20 09:16:28;;;;;;;2.63;1.40;;;;;;;9.47;87.12;101054.31;5025363;28;20045;-81
2022/12/20 09:18:56;;;;;;;2.03;1.20;;;;;;;9.46;87.94;101050.00;5021449;28;20474;-81
2022/12/20 09:21:22;;;;;;;2.50;1.30;;;;;;;9.45;88.21;101045.69;5024409;28;20033;-81
2022/12/20 09:23:52;;;;;;;3.22;1.50;;;;;;;9.42;88.64;101043.16;5031841;28;20112;-81
2022/12/20 09:26:19;;;;;;;4.45;1.38;;;;;;;9.43;88.52;101037.06;5033066;28;20096;-81
2022/12/20 09:28:45;;;;;;;3.25;1.40;;;;;;;9.43;88.69;101042.25;5026612;28;20181;-81
2022/12/20 09:31:13;;;;;;;2.85;1.35;;;;;;;9.46;88.56;101054.34;5022229;28;20049;-81
2022/12/20 09:33:40;;;;;;;2.50;1.52;;;;;;;9.47;88.74;101049.13;5026179;28;20032;-80
2022/12/20 09:36:06;;;;;;;2.60;1.35;;;;;;;9.49;89.24;101047.34;5023187;28;20124;-81
2022/12/20 09:38:31;;;;;;;1.85;1.40;;;;;;;9.55;89.29;101046.38;5032502;28;20110;-81
2022/12/20 09:41:02;;;;;;;5.50;1.38;;;;;;;9.59;88.84;101039.38;5032726;28;20112;-81
2022/12/20 09:43:28;;;;;;;3.03;1.40;;;;;;;9.63;89.07;101046.25;5021656;28;20038;-81
2022/12/20 09:45:58;;;;;;;3.60;1.38;;;;;;;9.66;88.90;101052.22;5027261;28;20442;-81
2022/12/20 09:48:31;;;;;;;4.32;1.50;;;;;;;9.69;88.97;101040.94;5022086;28;20029;-81
2022/12/20 09:51:20;;;;;;;2.58;1.40;;;;;;;9.72;88.61;101046.09;5013486;28;20113;-80
2022/12/20 09:54:18;;;;;;;2.85;1.50;;;;;;;9.75;88.34;101046.00;5024516;28;20559;-80
2022/12/20 09:57:01;;;;;;;2.42;1.40;;;;;;;9.77;88.35;101033.84;5001107;28;20041;-81
2022/12/20 09:59:26;;;;;;;2.25;1.50;;;;;;;9.78;88.16;101045.94;5024206;28;20022;-81
2022/12/20 10:01:52;;;;;;;2.50;1.23;;;;;;;9.78;87.74;101045.94;5019629;28;20030;-81
2022/12/20 10:04:25;;;;;;;3.00;1.42;;;;;;;9.77;87.71;101044.22;5021283;28;20026;-81
2022/12/20 10:07:03;;;;;;;2.50;1.35;;;;;;;9.77;87.63;101044.22;5027189;28;20029;-81
2022/12/20 10:09:28;;;;;;;2.50;1.27;;;;;;;9.77;87.27;101027.81;5023618;28;20095;-81
2022/12/20 10:11:59;;;;;;;4.63;1.30;;;;;;;9.78;87.54;101030.34;5021731;28;20037;-80
2022/12/20 10:15:02;;;;;;;3.45;1.15;;;;;;;9.79;87.57;101032.06;5020950;28;20070;-81
2022/12/20 10:17:38;;;;;;;3.03;1.33;;;;;;;9.80;87.55;101032.94;5024740;28;20044;-80
2022/12/20 10:20:23;;;;;;;3.42;1.40;;;;;;;9.81;87.06;101025.09;5019702;28;20033;-81
2022/12/20 10:23:03;;;;;;;2.47;1.40;;;;;;;9.83;87.30;101023.34;5025653;28;20033;-81
2022/12/20 10:25:31;;;;;;;2.72;1.25;;;;;;;9.85;87.29;101021.56;5019549;28;20064;-81
2022/12/20 10:28:01;;;;;;;4.13;1.67;;;;;;;9.86;87.50;101015.50;5018459;28;20095;-81
2022/12/20 10:30:27;;;;;;;3.50;1.40;;;;;;;9.93;87.07;101013.63;5018527;28;20070;-81
2022/12/20 10:32:56;;;;;;;2.53;1.48;;;;;;;9.96;87.48;101018.75;5024005;28;20035;-80
2022/12/20 10:35:27;;;;;;;2.60;1.23;;;;;;;10.01;86.75;101013.47;5022256;28;20022;-81
2022/12/20 10:37:57;;;;;;;3.05;1.38;;;;;;;10.06;86.89;101002.97;5024408;28;20084;-80
2022/12/20 10:40:35;;;;;;;3.05;1.40;;;;;;;10.10;86.52;101010.66;5025396;28;20075;-81
2022/12/20 10:43:03;;;;;;;2.75;1.27;;;;;;;10.13;86.58;101005.41;5023402;28;20473;-81
2022/12/20 10:45:36;;;;;;;2.55;1.30;;;;;;;10.17;86.37;101011.38;5025803;28;20061;-81
2022/12/20 10:48:21;;;;;;;2.65;1.35;;;;;;;10.16;86.62;101010.53;5025801;28;20025;-81
2022/12/20 10:50:55;;;;;;;5.75;1.48;;;;;;;10.17;87.04;101013.97;5027108;28;20025;-80
2022/12/20 10:53:24;;;;;;;3.42;1.20;;;;;;;10.13;87.69;101015.78;5026051;28;20049;-81
2022/12/20 10:55:50;;;;;;;3.22;1.48;;;;;;;10.10;88.32;101021.06;5015426;28;20029;-81
2022/12/20 10:58:34;;;;;;;3.75;1.40;;;;;;;10.06;88.26;101015.97;5024298;28;20469;-81
2022/12/20 11:01:27;;;;;;;2.83;1.30;;;;;;;10.01;88.59;101016.91;5022635;28;20159;-80
2022/12/20 11:03:55;;;;;;;2.72;1.48;;;;;;;9.98;89.25;101013.53;5019075;28;20115;-80
2022/12/20 11:06:39;;;;;;;4.68;1.70;;;;;;;9.93;90.15;101002.34;5025713;28;20445;-81
2022/12/20 11:09:33;;;;;;;2.80;1.20;;;;;;;9.92;89.70;101011.03;5025799;28;20330;-81
2022/12/20 11:12:12;;;;;;;2.25;1.35;;;;;;;9.90;90.49;101005.03;5024539;28;20026;-81
2022/12/20 11:14:38;;;;;;;3.88;1.50;;;;;;;9.89;90.23;101005.94;5021537;28;20160;-80
2022/12/20 11:17:18;;;;;;;2.80;1.60;;;;;;;9.83;90.52;100997.34;5023695;28;20485;-81
2022/12/20 11:20:15;;;;;;;4.03;1.60;;;;;;;9.82;90.93;100994.81;5024370;28;20029;-80
2022/12/20 11:23:01;;;;;;;2.72;1.52;;;;;;;9.80;90.88;101000.00;5022666;28;20224;-81
2022/12/20 11:25:45;;;;;;;2.75;1.45;;;;;;;9.80;91.33;100989.63;5026897;28;20026;-81
2022/12/20 11:28:24;;;;;;;3.92;1.60;;;;;;;9.77;91.95;100992.28;5023598;28;20104;-81
2022/12/20 11:31:10;;;;;;;2.75;1.50;;;;;;;9.75;91.89;100996.63;5024341;28;20053;-80
2022/12/20 11:34:02;;;;;;;2.78;1.50;;;;;;;9.75;92.15;100986.25;5026768;28;20052;-80
2022/12/20 11:36:50;;;;;;;3.95;1.73;;;;;;;9.74;92.40;100991.50;5022223;28;20038;-81
2022/12/20 11:39:25;;;;;;;4.47;1.60;;;;;;;9.73;92.28;100985.44;5026206;28;20028;-81
2022/12/20 11:41:56;;;;;;;3.70;1.70;;;;;;;9.72;92.91;100983.72;5021329;28;20550;-81
2022/12/20 11:44:44;;;;;;;3.20;1.80;;;;;;;9.74;92.73;100981.94;5025003;28;20041;-81
2022/12/20 11:47:31;;;;;;;2.88;1.60;;;;;;;9.74;93.02;100976.75;5024250;28;20040;-81
2022/12/20 11:50:02;;;;;;;4.35;1.63;;;;;;;9.76;93.39;100969.78;5025977;28;20037;-81
2022/12/20 11:52:35;;;;;;;2.83;1.70;;;;;;;9.77;93.14;100978.44;5024983;28;20067;-81
2022/12/20 11:55:20;;;;;;;7.32;1.92;;;;;;;9.72;93.27;100973.34;5028160;28;20025;-82
2022/12/20 11:57:58;;;;;;;3.58;1.90;;;;;;;9.72;93.85;100968.16;5011206;28;20063;-81